Time,TemperatureF,DewpointF,PressureIn,WindDirection,WindDirectionDegrees,WindSpeedMPH,WindSpeedGustMPH,Humidity,HourlyPrecipIn,Conditions,Clouds,dailyrainin,SoftwareType,DateUTC
2013-03-18 00:01:00,34.5,31.0,29.86,East,80,10.0,14.0,88,0.00,,,0.00,weatherlink.com 1.10,2013-03-18 05:01:00,
2013-03-18 00:15:00,34.5,31.0,29.85,ENE,71,13.0,16.0,88,0.00,,,0.00,weatherlink.com 1.10,2013-03-18 05:15:00,
2013-03-18 00:45:00,34.3,31.0,29.85,ENE,67,15.0,15.0,89,0.00,,,0.00,weatherlink.com 1.10,2013-03-18 05:45:00,
2013-03-18 01:00:00,34.3,31.0,29.83,East,96,10.0,16.0,89,0.01,,,0.01,weatherlink.com 1.10,2013-03-18 06:00:00,
2013-03-18 01:16:00,33.9,32.0,29.82,ENE,78,11.0,14.0,91,0.01,,,0.01,weatherlink.com 1.10,2013-03-18 06:16:00,
2013-03-18 01:31:00,33.6,32.0,29.80,East,79,12.0,16.0,92,0.01,,,0.01,weatherlink.com 1.10,2013-03-18 06:31:00,
2013-03-18 02:02:00,33.5,32.0,29.78,East,79,13.0,17.0,92,0.00,,,0.01,weatherlink.com 1.10,2013-03-18 07:02:00,
2013-03-18 02:16:00,33.5,32.0,29.78,East,81,10.0,16.0,92,0.00,,,0.01,weatherlink.com 1.10,2013-03-18 07:16:00,
2013-03-18 02:32:00,33.5,32.0,29.78,East,86,12.0,13.0,93,0.00,,,0.01,weatherlink.com 1.10,2013-03-18 07:32:00,
2013-03-18 02:46:00,33.5,32.0,29.78,East,92,7.0,12.0,93,0.00,,,0.01,weatherlink.com 1.10,2013-03-18 07:46:00,
2013-03-18 03:02:00,33.4,32.0,29.78,East,95,8.0,11.0,93,0.00,,,0.01,weatherlink.com 1.10,2013-03-18 08:02:00,
2013-03-18 03:31:00,33.3,32.0,29.77,ENE,76,9.0,13.0,94,0.00,,,0.01,weatherlink.com 1.10,2013-03-18 08:31:00,
2013-03-18 03:47:00,33.2,32.0,29.75,East,84,7.0,11.0,95,0.00,,,0.01,weatherlink.com 1.10,2013-03-18 08:47:00,
2013-03-18 04:02:00,33.2,32.0,29.75,ENE,68,7.0,9.0,95,0.00,,,0.01,weatherlink.com 1.10,2013-03-18 09:02:00,
2013-03-18 04:17:00,33.1,32.0,29.75,ENE,74,8.0,10.0,95,0.00,,,0.01,weatherlink.com 1.10,2013-03-18 09:17:00,
2013-03-18 04:32:00,33.1,32.0,29.74,ENE,71,11.0,12.0,95,0.00,,,0.01,weatherlink.com 1.10,2013-03-18 09:32:00,
2013-03-18 04:48:00,32.9,32.0,29.73,ENE,74,7.0,12.0,95,0.00,,,0.01,weatherlink.com 1.10,2013-03-18 09:48:00,
2013-03-18 05:02:00,32.9,32.0,29.72,ENE,72,10.0,13.0,95,0.00,,,0.01,weatherlink.com 1.10,2013-03-18 10:02:00,
2013-03-18 05:18:00,32.8,32.0,29.73,East,85,6.0,10.0,96,0.00,,,0.01,weatherlink.com 1.10,2013-03-18 10:18:00,
2013-03-18 05:32:00,32.8,32.0,29.72,ENE,76,4.0,9.0,96,0.00,,,0.01,weatherlink.com 1.10,2013-03-18 10:32:00,
2013-03-18 05:47:00,32.8,32.0,29.73,ENE,78,6.0,6.0,96,0.00,,,0.01,weatherlink.com 1.10,2013-03-18 10:47:00,
2013-03-18 06:17:00,32.8,32.0,29.72,ENE,72,5.0,10.0,96,0.01,,,0.02,weatherlink.com 1.10,2013-03-18 11:17:00,
2013-03-18 06:32:00,32.7,32.0,29.71,ENE,57,6.0,7.0,96,0.01,,,0.02,weatherlink.com 1.10,2013-03-18 11:32:00,
2013-03-18 06:47:00,32.7,32.0,29.72,ENE,68,6.0,6.0,96,0.01,,,0.02,weatherlink.com 1.10,2013-03-18 11:47:00,
2013-03-18 07:02:00,32.7,32.0,29.70,ENE,76,5.0,8.0,96,0.01,,,0.02,weatherlink.com 1.10,2013-03-18 12:02:00,
2013-03-18 07:17:00,32.7,32.0,29.71,ENE,69,2.0,6.0,96,0.00,,,0.02,weatherlink.com 1.10,2013-03-18 12:17:00,
2013-03-18 07:32:00,32.7,32.0,29.72,ENE,68,3.0,4.0,96,0.00,,,0.02,weatherlink.com 1.10,2013-03-18 12:32:00,
2013-03-18 07:47:00,32.8,32.0,29.72,ENE,75,1.0,4.0,96,0.00,,,0.02,weatherlink.com 1.10,2013-03-18 12:47:00,
2013-03-18 08:02:00,32.8,32.0,29.73,ENE,76,0.0,1.0,96,0.00,,,0.02,weatherlink.com 1.10,2013-03-18 13:02:00,
2013-03-18 08:17:00,32.9,32.0,29.73,ENE,76,0.0,1.0,96,0.00,,,0.02,weatherlink.com 1.10,2013-03-18 13:17:00,
2013-03-18 08:32:00,32.9,32.0,29.73,NNW,335,0.0,2.0,96,0.00,,,0.02,weatherlink.com 1.10,2013-03-18 13:32:00,
2013-03-18 08:47:00,32.9,32.0,29.73,NNW,335,0.0,2.0,97,0.00,,,0.02,weatherlink.com 1.10,2013-03-18 13:47:00,
2013-03-18 09:02:00,33.1,32.0,29.73,NNW,335,1.0,2.0,97,0.00,,,0.02,weatherlink.com 1.10,2013-03-18 14:02:00,
2013-03-18 09:17:00,33.3,33.0,29.72,WNW,302,1.0,2.0,97,0.01,,,0.03,weatherlink.com 1.10,2013-03-18 14:17:00,
2013-03-18 09:34:00,33.7,33.0,29.70,NW,309,0.0,3.0,97,0.01,,,0.03,weatherlink.com 1.10,2013-03-18 14:34:00,
2013-03-18 09:47:00,33.9,33.0,29.73,WNW,293,2.0,4.0,97,0.01,,,0.03,weatherlink.com 1.10,2013-03-18 14:47:00,
2013-03-18 10:02:00,34.1,33.0,29.72,WNW,285,2.0,2.0,97,0.01,,,0.03,weatherlink.com 1.10,2013-03-18 15:02:00,
2013-03-18 10:17:00,34.3,33.0,29.73,NW,320,1.0,4.0,96,0.00,,,0.03,weatherlink.com 1.10,2013-03-18 15:17:00,
2013-03-18 10:32:00,34.6,34.0,29.72,NW,307,4.0,4.0,96,0.00,,,0.03,weatherlink.com 1.10,2013-03-18 15:32:00,
2013-03-18 10:47:00,34.8,34.0,29.73,West,281,2.0,4.0,96,0.00,,,0.03,weatherlink.com 1.10,2013-03-18 15:47:00,
2013-03-18 11:02:00,34.9,34.0,29.74,WNW,287,3.0,7.0,95,0.00,,,0.03,weatherlink.com 1.10,2013-03-18 16:02:00,
2013-03-18 11:17:00,35.2,34.0,29.73,WNW,289,4.0,7.0,95,0.00,,,0.03,weatherlink.com 1.10,2013-03-18 16:17:00,
2013-03-18 11:32:00,35.5,34.0,29.73,West,266,5.0,7.0,95,0.00,,,0.03,weatherlink.com 1.10,2013-03-18 16:32:00,
2013-03-18 11:47:00,35.9,34.0,29.73,WNW,300,6.0,11.0,94,0.00,,,0.03,weatherlink.com 1.10,2013-03-18 16:47:00,
2013-03-18 12:02:00,36.1,35.0,29.73,WNW,288,3.0,10.0,94,0.00,,,0.03,weatherlink.com 1.10,2013-03-18 17:02:00,
2013-03-18 12:17:00,36.7,35.0,29.73,WNW,287,3.0,8.0,93,0.00,,,0.03,weatherlink.com 1.10,2013-03-18 17:17:00,
2013-03-18 12:32:00,37.4,35.0,29.73,NW,306,6.0,13.0,91,0.00,,,0.03,weatherlink.com 1.10,2013-03-18 17:32:00,
2013-03-18 12:47:00,38.1,36.0,29.74,NW,314,7.0,10.0,90,0.00,,,0.03,weatherlink.com 1.10,2013-03-18 17:47:00,
2013-03-18 13:02:00,38.2,35.0,29.74,WNW,293,6.0,14.0,89,0.00,,,0.03,weatherlink.com 1.10,2013-03-18 18:02:00,
2013-03-18 13:17:00,38.3,35.0,29.75,NNW,347,9.0,13.0,89,0.00,,,0.03,weatherlink.com 1.10,2013-03-18 18:17:00,
2013-03-18 13:33:00,38.5,36.0,29.75,WNW,285,7.0,13.0,89,0.00,,,0.03,weatherlink.com 1.10,2013-03-18 18:33:00,
2013-03-18 13:48:00,38.9,36.0,29.75,West,281,5.0,16.0,88,0.00,,,0.03,weatherlink.com 1.10,2013-03-18 18:48:00,
2013-03-18 14:03:00,40.0,36.0,29.75,WNW,286,8.0,15.0,84,0.00,,,0.03,weatherlink.com 1.10,2013-03-18 19:03:00,
2013-03-18 14:18:00,39.8,35.0,29.75,WNW,295,5.0,17.0,84,0.00,,,0.03,weatherlink.com 1.10,2013-03-18 19:18:00,
2013-03-18 14:33:00,39.8,35.0,29.74,West,270,10.0,18.0,84,0.00,,,0.03,weatherlink.com 1.10,2013-03-18 19:33:00,
2013-03-18 14:48:00,40.4,35.0,29.74,WNW,302,6.0,17.0,81,0.00,,,0.03,weatherlink.com 1.10,2013-03-18 19:48:00,
2013-03-18 15:03:00,41.5,36.0,29.73,WNW,291,9.0,14.0,80,0.00,,,0.03,weatherlink.com 1.10,2013-03-18 20:03:00,
2013-03-18 15:18:00,42.5,36.0,29.73,WNW,287,11.0,18.0,78,0.00,,,0.03,weatherlink.com 1.10,2013-03-18 20:18:00,
2013-03-18 15:33:00,44.4,36.0,29.73,WNW,295,6.0,16.0,73,0.00,,,0.03,weatherlink.com 1.10,2013-03-18 20:33:00,
2013-03-18 15:48:00,44.7,36.0,29.73,West,262,3.0,17.0,72,0.00,,,0.03,weatherlink.com 1.10,2013-03-18 20:48:00,
2013-03-18 16:03:00,46.5,36.0,29.73,WNW,297,8.0,18.0,66,0.00,,,0.03,weatherlink.com 1.10,2013-03-18 21:03:00,
2013-03-18 16:18:00,46.0,33.0,29.74,NW,313,7.0,29.0,60,0.00,,,0.03,weatherlink.com 1.10,2013-03-18 21:18:00,
2013-03-18 16:33:00,46.3,27.0,29.74,WNW,285,17.0,32.0,48,0.00,,,0.03,weatherlink.com 1.10,2013-03-18 21:33:00,
2013-03-18 16:48:00,46.0,27.0,29.75,WNW,302,7.0,23.0,48,0.00,,,0.03,weatherlink.com 1.10,2013-03-18 21:48:00,
2013-03-18 17:03:00,45.7,28.0,29.76,WNW,287,9.0,28.0,51,0.00,,,0.03,weatherlink.com 1.10,2013-03-18 22:03:00,
2013-03-18 17:18:00,46.1,29.0,29.76,West,267,12.0,26.0,51,0.00,,,0.03,weatherlink.com 1.10,2013-03-18 22:18:00,
2013-03-18 17:33:00,44.5,28.0,29.77,WNW,297,14.0,22.0,52,0.00,,,0.03,weatherlink.com 1.10,2013-03-18 22:33:00,
2013-03-18 17:48:00,44.0,27.0,29.78,WNW,288,3.0,20.0,51,0.00,,,0.03,weatherlink.com 1.10,2013-03-18 22:48:00,
2013-03-18 18:03:00,43.2,26.0,29.80,WNW,283,11.0,16.0,51,0.00,,,0.03,weatherlink.com 1.10,2013-03-18 23:03:00,
2013-03-18 18:18:00,42.4,27.0,29.81,WSW,254,9.0,17.0,54,0.00,,,0.03,weatherlink.com 1.10,2013-03-18 23:18:00,
2013-03-18 18:34:00,41.6,26.0,29.81,WSW,257,16.0,17.0,55,0.00,,,0.03,weatherlink.com 1.10,2013-03-18 23:34:00,
2013-03-18 18:48:00,40.1,24.0,29.83,NW,316,5.0,24.0,54,0.00,,,0.03,weatherlink.com 1.10,2013-03-18 23:48:00,
2013-03-18 19:03:00,39.1,25.0,29.84,WNW,291,5.0,15.0,57,0.00,,,0.03,weatherlink.com 1.10,2013-03-19 00:03:00,
2013-03-18 19:18:00,37.8,26.0,29.85,WNW,287,3.0,16.0,62,0.00,,,0.03,weatherlink.com 1.10,2013-03-19 00:18:00,
2013-03-18 19:33:00,35.9,25.0,29.86,WNW,298,0.0,7.0,66,0.00,,,0.03,weatherlink.com 1.10,2013-03-19 00:33:00,
2013-03-18 19:48:00,34.7,25.0,29.87,WNW,300,7.0,10.0,68,0.00,,,0.03,weatherlink.com 1.10,2013-03-19 00:48:00,
2013-03-18 20:03:00,33.9,25.0,29.88,WNW,299,4.0,11.0,69,0.00,,,0.03,weatherlink.com 1.10,2013-03-19 01:03:00,
2013-03-18 20:18:00,32.9,24.0,29.90,NW,304,3.0,8.0,71,0.00,,,0.03,weatherlink.com 1.10,2013-03-19 01:18:00,
2013-03-18 20:33:00,32.2,24.0,29.90,NW,305,3.0,9.0,71,0.00,,,0.03,weatherlink.com 1.10,2013-03-19 01:33:00,
2013-03-18 20:48:00,31.6,23.0,29.92,West,269,6.0,13.0,71,0.00,,,0.03,weatherlink.com 1.10,2013-03-19 01:48:00,
2013-03-18 21:04:00,31.0,23.0,29.92,NW,304,6.0,9.0,73,0.00,,,0.03,weatherlink.com 1.10,2013-03-19 02:04:00,
2013-03-18 21:18:00,30.6,22.0,29.93,NW,319,7.0,9.0,71,0.00,,,0.03,weatherlink.com 1.10,2013-03-19 02:18:00,
2013-03-18 21:34:00,30.5,22.0,29.93,West,264,4.0,12.0,70,0.00,,,0.03,weatherlink.com 1.10,2013-03-19 02:34:00,
2013-03-18 21:49:00,30.6,20.0,29.94,West,275,11.0,13.0,65,0.00,,,0.03,weatherlink.com 1.10,2013-03-19 02:49:00,
2013-03-18 22:04:00,30.6,20.0,29.95,NNW,335,4.0,18.0,64,0.00,,,0.03,weatherlink.com 1.10,2013-03-19 03:04:00,
2013-03-18 22:19:00,29.6,21.0,29.96,WNW,297,3.0,10.0,71,0.00,,,0.03,weatherlink.com 1.10,2013-03-19 03:19:00,
2013-03-18 22:34:00,29.0,21.0,29.97,NW,304,5.0,9.0,73,0.00,,,0.03,weatherlink.com 1.10,2013-03-19 03:34:00,
2013-03-18 22:49:00,28.6,21.0,29.98,NW,304,7.0,9.0,73,0.00,,,0.03,weatherlink.com 1.10,2013-03-19 03:49:00,
2013-03-18 23:04:00,28.1,21.0,29.98,West,278,2.0,6.0,74,0.00,,,0.03,weatherlink.com 1.10,2013-03-19 04:04:00,
2013-03-18 23:19:00,27.9,20.0,29.98,WNW,295,6.0,15.0,73,0.00,,,0.03,weatherlink.com 1.10,2013-03-19 04:19:00,
2013-03-18 23:34:00,28.3,19.0,29.98,NW,315,8.0,-999.0,68,-99.99,,,0.03,weatherlink.com 1.10,2013-03-19 04:34:00,
2013-03-18 23:49:00,28.7,17.0,29.98,WNW,300,7.0,14.0,63,0.00,,,0.03,weatherlink.com 1.10,2013-03-19 04:49:00,